Terminal Aerodrome Forecast
Issued by NWS

Home | Current Version | Previous Version | Text Only | Print | Product List | Glossary On
Versions: 1 2 3 4 5 6 7 8 9 10 11 12 13
095
FTUS45 KREV 292320
TAFMMH
TAF
KMMH 292320Z 3000/3024 28014G24KT P6SM FEW120 SCT200
     FM300400 VRB04KT P6SM SCT200
     FM301900 21014G24KT P6SM SKC=

USA.gov is the U.S. government's official web portal to all federal, state and local government web resources and services.